EPLL/LCJ METAR and TAF weather

Enter ICAO airport designator
Station Type Date Time Source
EPLL METAR 2018/07/21 13:30 UTC NOAA

EPLL 211330Z 10003KT 010V180 CAVOK 26/13 Q1011


Station Type Date Time Source
EPLL Decoded METAR 2018/07/21 13:30 UTC NOAA

Station name not available
Jul 21, 2018 - 09:30 AM EDT / 2018.07.21 1330 UTC
Wind: from the E (100 degrees) at 3 MPH (3 KT) (direction variable):0
Visibility: greater than 7 mile(s):0
Temperature: 78 F (26 C)
Dew Point: 55 F (13 C)
Relative Humidity: 44%
Pressure (altimeter): 29.85 in. Hg (1011 hPa)
ob: EPLL 211330Z 10003KT 010V180 CAVOK 26/13 Q1011
cycle: 13

Station Type Date Time Source
EPLL TAF 2018/07/21 12:00 UTC NOAA

TAF EPLL 211130Z 2112/2212 VRB04KT 9999 SCT045 PROB40
TEMPO 2112/2116 SCT045TCU


Example: see airport list